Thunder radar more information blitzortung!


Radar de pluja more information rain snow radar


Visita la nostra xarxa de llocs de meteo:

Template documentation
and downloads

And another site



No particular awareness of the weather is required.    There are no Weather-warnings

Pagina Historial Weather Underground text

Diari Resum Abril 3, 2016 Unitats:  Mètric    Imperial   Tant
« Previous Dia
SegĂźent Dia »
Diari Setmana Mensual Anual Personalitzada
  Maxima: Minima: Media:
Temperatura: -17.8 °C -14.3 °C -10.5 °C
Punt de rosada: -17.8 °C -16.7 °C -13.8 °C
Humitat: Humidity % 52 % 67 %
Wind Speed: 0 km/h 0 km/h 10 km/h
RĂ fegues de vent: 0 km/h - -
Vent:- - SSW
Pression baro: 0 hPa 34222.3 hPa -
Precipitacions: 0 mm    
Historical Graphs
 
 
Dades de taula per Abril 3, 2016
Temps Temperatura Punt de rosada Pression baro Vent Wind Speed RĂ fegues de vent Humitat Rainfall Rate (Hourly)
-17.8 °C -17.8 °C 0 hPa Calm     Humidity % 0 mm
00:00 -12.2 °C -15.9 °C 34361.1 hPa SW 11.9 km/h 11.9 km/h 63 % 0 mm
00:05 -13.8 °C -16.4 °C 34327.3 hPa SW 2.6 km/h 5.1 km/h 72 % 0 mm
00:15 -13.9 °C -16.4 °C 34327.3 hPa SW 2.6 km/h 5.1 km/h 73 % 0 mm
00:25 -13.9 °C -16.4 °C 34327.3 hPa WSW 5.1 km/h 5.1 km/h 73 % 0 mm
00:35 -13.9 °C -16.3 °C 34327.3 hPa WSW 2.6 km/h 2.6 km/h 74 % 0 mm
00:45 -13.9 °C -16.2 °C 34327.3 hPa Calm   2.6 km/h 75 % 0 mm
00:55 -13.9 °C -16.3 °C 34327.3 hPa WSW 2.6 km/h 5.1 km/h 74 % 0 mm
01:05 -13.9 °C -16.2 °C 34327.3 hPa Calm   2.6 km/h 75 % 0 mm
01:15 -13.9 °C -16.2 °C 34327.3 hPa Calm     75 % 0 mm
01:25 -13.8 °C -16.2 °C 34327.3 hPa Calm   5.1 km/h 75 % 0 mm
01:35 -13.8 °C -16.1 °C 34327.3 hPa Calm     75 % 0 mm
01:45 -13.9 °C -16.2 °C 34327.3 hPa WNW 2.6 km/h 5.1 km/h 75 % 0 mm
01:55 -14.1 °C -16.4 °C 34327.3 hPa Calm   2.6 km/h 74 % 0 mm
02:05 -14.1 °C -16.4 °C 34327.3 hPa Calm   2.6 km/h 75 % 0 mm
02:15 -14.3 °C -16.7 °C 34293.4 hPa SE 2.6 km/h 5.1 km/h 74 % 0 mm
02:25 -14.3 °C -16.6 °C 34327.3 hPa Calm   2.6 km/h 75 % 0 mm
02:35 -14.3 °C -16.5 °C 34327.3 hPa Calm     76 % 0 mm
02:45 -14.3 °C -16.3 °C 34327.3 hPa Calm     77 % 0 mm
02:55 -14.2 °C -16.2 °C 34327.3 hPa Calm     77 % 0 mm
03:05 -14.1 °C -16.2 °C 34327.3 hPa Calm   2.6 km/h 77 % 0 mm
03:15 -14.1 °C -16.2 °C 34327.3 hPa Calm   5.1 km/h 76 % 0 mm
03:25 -13.9 °C -16 °C 34361.1 hPa Calm   2.6 km/h 77 % 0 mm
03:35 -13.8 °C -16 °C 34361.1 hPa NE 5.1 km/h 7.7 km/h 76 % 0 mm
03:45 -13.6 °C -15.8 °C 34361.1 hPa NE 2.6 km/h 5.1 km/h 76 % 0 mm
03:55 -13.4 °C -15.7 °C 34361.1 hPa NE 2.6 km/h 2.6 km/h 76 % 0 mm
04:05 -13.2 °C -15.5 °C 34361.1 hPa Calm   2.6 km/h 75 % 0 mm
04:15 -13.1 °C -15.5 °C 34361.1 hPa SSE 2.6 km/h 7.7 km/h 74 % 0 mm
04:25 -13.1 °C -15.6 °C 34361.1 hPa SE 2.6 km/h 7.7 km/h 73 % 0 mm
04:35 -12.9 °C -15.5 °C 34361.1 hPa ESE 7.7 km/h 7.7 km/h 73 % 0 mm
04:45 -12.8 °C -15.3 °C 34361.1 hPa ESE 5.1 km/h 7.7 km/h 73 % 0 mm
04:55 -12.6 °C -15.3 °C 34395 hPa SE 5.1 km/h 7.7 km/h 72 % 0 mm
05:05 -12.6 °C -15.2 °C 34395 hPa ESE 5.1 km/h 7.7 km/h 72 % 0 mm
05:15 -12.2 °C -14.9 °C 34361.1 hPa Calm   2.6 km/h 72 % 0 mm
05:25 -11.5 °C -14.2 °C 34361.1 hPa Calm   2.6 km/h 72 % 0 mm
05:35 -11.3 °C -14.1 °C 34361.1 hPa ENE 2.6 km/h 2.6 km/h 71 % 0 mm
10:44 -10.9 °C -13.7 °C 34395 hPa East 6.3 km/h   71 % 0 mm
10:49 -10.6 °C -13.4 °C 34395 hPa WSW 6.3 km/h 6.3 km/h 71 % 0 mm
10:54 -10.5 °C -13.2 °C 34395 hPa WSW 7.6 km/h 7.6 km/h 72 % 0 mm
10:59 -10.3 °C -13.1 °C 34395 hPa WSW 6.8 km/h 6.8 km/h 72 % 0 mm
11:04 -10 °C -12.7 °C 34395 hPa SW 14 km/h 14 km/h 72 % 0 mm
11:09 -10.1 °C -12.9 °C 34395 hPa WSW 15 km/h 15 km/h 71 % 0 mm
11:19 -9.7 °C -12.6 °C 34395 hPa SSW 15.6 km/h 15.6 km/h 71 % 0 mm
11:24 -9.8 °C -12.8 °C 34395 hPa SW 15.6 km/h 15.6 km/h 70 % 0 mm
11:29 -9.7 °C -12.7 °C 34395 hPa West 11.1 km/h 11.1 km/h 70 % 0 mm
11:34 -9.7 °C -12.8 °C 34361.1 hPa West 15.6 km/h 15.6 km/h 69 % 0 mm
11:39 -9.5 °C -12.6 °C 34361.1 hPa WSW 11.9 km/h 11.9 km/h 69 % 0 mm
11:44 -9.4 °C -12.6 °C 34361.1 hPa WSW 12.7 km/h 12.7 km/h 69 % 0 mm
11:54 -9.2 °C -12.6 °C 34361.1 hPa SW 15 km/h 15 km/h 67 % 0 mm
11:59 -9.3 °C -12.7 °C 34361.1 hPa WSW 19.6 km/h 19.6 km/h 67 % 0 mm
12:04 -9.7 °C -13 °C 34361.1 hPa WSW 15 km/h 15 km/h 67 % 0 mm
12:09 -9.4 °C -12.8 °C 34361.1 hPa SSW 15 km/h 15 km/h 67 % 0 mm
12:14 -9 °C -12.4 °C 34361.1 hPa East 9 km/h 9 km/h 67 % 0 mm
12:19 -8.8 °C -12.3 °C 34361.1 hPa WSW 15.3 km/h 15.3 km/h 66 % 0 mm
12:24 -8.7 °C -12.5 °C 34361.1 hPa SSW 11.9 km/h 11.9 km/h 64 % 0 mm
12:29 -8.4 °C -12.5 °C 34361.1 hPa WSW 15 km/h 15 km/h 62 % 0 mm
12:34 -8.1 °C -12.2 °C 34361.1 hPa NE 9 km/h 9 km/h 62 % 0 mm
12:39 -8 °C -12.4 °C 34361.1 hPa WNW 17.9 km/h 17.9 km/h 60 % 0 mm
12:44 -8 °C -12.4 °C 34361.1 hPa West 15.3 km/h 15.3 km/h 60 % 0 mm
12:49 -8.1 °C -12.6 °C 34361.1 hPa SW 15 km/h 15 km/h 59 % 0 mm
12:54 -8.3 °C -12.9 °C 34361.1 hPa WSW 15 km/h 15 km/h 58 % 0 mm
12:59 -8.3 °C -13.1 °C 34361.1 hPa ESE 20.9 km/h 20.9 km/h 57 % 0 mm
13:04 -8.4 °C -13.2 °C 34327.3 hPa SSW 29.5 km/h 29.5 km/h 57 % 0 mm
13:09 -8.3 °C -13.2 °C 34327.3 hPa WNW 9 km/h 9 km/h 56 % 0 mm
13:14 -8.2 °C -13 °C 34327.3 hPa WSW 15 km/h 15 km/h 57 % 0 mm
13:19 -8 °C -12.9 °C 34327.3 hPa West 23.8 km/h 23.8 km/h 56 % 0 mm
13:24 -7.9 °C -12.8 °C 34327.3 hPa SSW 19.6 km/h 19.6 km/h 56 % 0 mm
13:29 -7.9 °C -13 °C 34327.3 hPa SSW 26.9 km/h 26.9 km/h 55 % 0 mm
13:34 -8.3 °C -13.5 °C 34327.3 hPa SW 17.9 km/h 17.9 km/h 54 % 0 mm
13:39 -8.1 °C -13.2 °C 34327.3 hPa SW 11.9 km/h 11.9 km/h 55 % 0 mm
13:44 -7.9 °C -13 °C 34327.3 hPa SSW 9 km/h 9.8 km/h 55 % 0 mm
13:49 -7.9 °C -13.1 °C 34327.3 hPa SSW 22 km/h 22 km/h 54 % 0 mm
14:04 -8.1 °C -13.4 °C 34327.3 hPa SW 17.9 km/h 17.9 km/h 53 % 0 mm
14:09 -8 °C -13.4 °C 34327.3 hPa SSW 20.9 km/h 20.9 km/h 53 % 0 mm
14:14 -8.2 °C -13.6 °C 34327.3 hPa SSW 20.9 km/h 20.9 km/h 53 % 0 mm
14:19 -8.2 °C -13.7 °C 34327.3 hPa WSW 26.9 km/h 26.9 km/h 52 % 0 mm
14:24 -7.9 °C -13.3 °C 34327.3 hPa SSW 11.9 km/h 11.9 km/h 53 % 0 mm
14:29 -8.1 °C -13.5 °C 34327.3 hPa WSW 23.8 km/h 23.8 km/h 53 % 0 mm
14:34 -8.4 °C -13.7 °C 34327.3 hPa SW 15 km/h 15 km/h 54 % 0 mm
14:39 -8.1 °C -13.3 °C 34327.3 hPa WSW 20.9 km/h 20.9 km/h 54 % 0 mm
14:44 -8.2 °C -13.6 °C 34327.3 hPa SW 15 km/h 15 km/h 53 % 0 mm
14:49 -8.2 °C -13.4 °C 34327.3 hPa WSW 17.9 km/h 17.9 km/h 54 % 0 mm
14:54 -8.3 °C -13.5 °C 34327.3 hPa West 11.9 km/h 11.9 km/h 54 % 0 mm
15:04 -8.3 °C -13.4 °C 34327.3 hPa SW 14.5 km/h 14.5 km/h 55 % 0 mm
15:09 -8.4 °C -13.5 °C 34327.3 hPa SSW 26.9 km/h 26.9 km/h 55 % 0 mm
15:14 -8.4 °C -13.7 °C 34327.3 hPa WSW 26.9 km/h 26.9 km/h 54 % 0 mm
15:19 -8.2 °C -13.4 °C 34327.3 hPa South 9 km/h 9 km/h 54 % 0 mm
15:29 -8.4 °C -13.5 °C 34327.3 hPa SSW 17.9 km/h 17.9 km/h 55 % 0 mm
15:34 -8.6 °C -13.4 °C 34327.3 hPa WSW 15 km/h 15 km/h 56 % 0 mm
15:39 -8.4 °C -13.3 °C 34327.3 hPa WSW 9 km/h 9 km/h 56 % 0 mm
15:44 -8.4 °C -13.3 °C 34327.3 hPa WSW 6.8 km/h 7.6 km/h 56 % 0 mm
15:49 -8.4 °C -13.4 °C 34327.3 hPa SSW 17.9 km/h 17.9 km/h 56 % 0 mm
15:54 -8.4 °C -13.4 °C 34327.3 hPa WSW 29.8 km/h 29.8 km/h 56 % 0 mm
15:59 -8.4 °C -13.3 °C 34327.3 hPa SW 11.9 km/h 11.9 km/h 56 % 0 mm
16:04 -8.4 °C -13.4 °C 34327.3 hPa SSW 23.8 km/h 23.8 km/h 56 % 0 mm
16:09 -8.6 °C -13.4 °C 34327.3 hPa SSW 11.9 km/h 11.9 km/h 56 % 0 mm
16:14 -8.6 °C -13.4 °C 34327.3 hPa SSW 15 km/h 15 km/h 56 % 0 mm
16:19 -8.6 °C -13.5 °C 34293.4 hPa SSW 19.2 km/h 19.2 km/h 56 % 0 mm
16:24 -8.8 °C -13.7 °C 34293.4 hPa SW 23.8 km/h 23.8 km/h 56 % 0 mm
16:29 -8.8 °C -13.5 °C 34293.4 hPa SW 9 km/h 9 km/h 57 % 0 mm
16:39 -9 °C -13.8 °C 34327.3 hPa WSW 26.9 km/h 26.9 km/h 56 % 0 mm
16:44 -8.9 °C -13.7 °C 34327.3 hPa SW 24.3 km/h 24.3 km/h 57 % 0 mm
16:49 -8.6 °C -13.4 °C 34293.4 hPa WSW 15 km/h 15 km/h 57 % 0 mm
16:54 -8.6 °C -13.4 °C 34293.4 hPa WSW 25.9 km/h 25.9 km/h 56 % 0 mm
16:59 -8.9 °C -13.6 °C 34293.4 hPa SW 23.8 km/h 23.8 km/h 57 % 0 mm
17:04 -8.9 °C -13.5 °C 34256.2 hPa SW 20.9 km/h 20.9 km/h 58 % 0 mm
17:09 -9.1 °C -13.7 °C 34256.2 hPa SSW 23.8 km/h 23.8 km/h 58 % 0 mm
17:19 -9.3 °C -13.6 °C 34293.4 hPa SSW 17.9 km/h 17.9 km/h 60 % 0 mm
17:24 -9.2 °C -13.4 °C 34293.4 hPa SW 16.6 km/h 16.6 km/h 61 % 0 mm
17:29 -9.2 °C -13.3 °C 34293.4 hPa SW 20.9 km/h 20.9 km/h 61 % 0 mm
17:34 -9.3 °C -13.4 °C 34293.4 hPa SSE 15 km/h 15 km/h 62 % 0 mm
17:39 -9.3 °C -13.2 °C 34293.4 hPa SW 15 km/h 15 km/h 63 % 0 mm
17:44 -9.3 °C -13.2 °C 34293.4 hPa SSW 16.1 km/h 16.1 km/h 63 % 0 mm
17:50 -9.4 °C -13.2 °C 34293.4 hPa WSW 17.9 km/h 17.9 km/h 64 % 0 mm
17:55 -9.4 °C -13.1 °C 34293.4 hPa WSW 23.8 km/h 23.8 km/h 65 % 0 mm
18:00 -9.4 °C -13.1 °C 34293.4 hPa SW 15 km/h 15 km/h 65 % 0 mm
18:05 -9.4 °C -13.1 °C 34293.4 hPa SW 17.9 km/h 17.9 km/h 65 % 0 mm
18:10 -9.5 °C -13.1 °C 34293.4 hPa WSW 11.9 km/h 11.9 km/h 65 % 0 mm
18:15 -9.6 °C -13.2 °C 34293.4 hPa WSW 19.2 km/h 19.2 km/h 65 % 0 mm
18:20 -9.6 °C -13.3 °C 34256.2 hPa SW 15 km/h 15 km/h 64 % 0 mm
18:25 -9.5 °C -13.2 °C 34256.2 hPa SW 7.7 km/h 18.2 km/h 64 % 0 mm
18:30 -9.6 °C -13.2 °C 34256.2 hPa SW 23.8 km/h 23.8 km/h 65 % 0 mm
18:35 -9.7 °C -13.3 °C 34256.2 hPa WSW 20.9 km/h 20.9 km/h 65 % 0 mm
18:40 -9.6 °C -13.2 °C 34256.2 hPa SSW 11.9 km/h 11.9 km/h 65 % 0 mm
18:45 -9.5 °C -13.1 °C 34256.2 hPa SW 15 km/h 15 km/h 65 % 0 mm
18:50 -9.6 °C -13.4 °C 34256.2 hPa WSW 9.3 km/h 12.2 km/h 64 % 0 mm
18:55 -9.7 °C -13.4 °C 34256.2 hPa SSW 17.9 km/h 17.9 km/h 64 % 0 mm
19:00 -9.7 °C -13.4 °C 34256.2 hPa SW 17.9 km/h 17.9 km/h 64 % 0 mm
19:05 -9.6 °C -13.4 °C 34256.2 hPa SW 15 km/h 15 km/h 64 % 0 mm
19:10 -9.8 °C -13.5 °C 34256.2 hPa SSW 18.3 km/h 18.3 km/h 64 % 0 mm
19:15 -11.2 °C -13.4 °C 34293.4 hPa NE 2.6 km/h 5.1 km/h 77 % 0 mm
19:20 -9.9 °C -13.5 °C 34256.2 hPa SW 26.9 km/h 26.9 km/h 65 % 0 mm
19:25 -9.9 °C -13.6 °C 34256.2 hPa SW 15 km/h 15.3 km/h 65 % 0 mm
19:30 -9.9 °C -13.6 °C 34256.2 hPa West 15 km/h 15 km/h 65 % 0 mm
19:35 -10 °C -13.6 °C 34222.3 hPa SSW 17.9 km/h 17.9 km/h 65 % 0 mm
19:40 -10.1 °C -13.6 °C 34222.3 hPa SW 20.9 km/h 20.9 km/h 66 % 0 mm
19:45 -10.2 °C -13.7 °C 34222.3 hPa SSW 15 km/h 15 km/h 66 % 0 mm
19:50 -10.3 °C -13.6 °C 34256.2 hPa SSW 11.9 km/h 11.9 km/h 67 % 0 mm
19:55 -10.4 °C -13.7 °C 34256.2 hPa South 15 km/h 15 km/h 67 % 0 mm
20:00 -10.4 °C -13.8 °C 34256.2 hPa SSW 9 km/h 9 km/h 67 % 0 mm
20:05 -10.5 °C -13.7 °C 34256.2 hPa SSW 11.9 km/h 11.9 km/h 68 % 0 mm
20:10 -10.6 °C -13.8 °C 34256.2 hPa SW 9 km/h 9 km/h 68 % 0 mm
20:15 -10.6 °C -13.8 °C 34256.2 hPa SW 8 km/h 8 km/h 68 % 0 mm
20:20 -10.7 °C -13.8 °C 34256.2 hPa WSW 11.9 km/h 11.9 km/h 68 % 0 mm
20:25 -10.7 °C -13.9 °C 34256.2 hPa SW 5.1 km/h 10.3 km/h 68 % 0 mm
20:30 -10.8 °C -13.9 °C 34256.2 hPa SW 9 km/h 9 km/h 69 % 0 mm
20:35 -10.9 °C -13.9 °C 34256.2 hPa SW 9 km/h 9 km/h 69 % 0 mm
20:40 -10.9 °C -13.9 °C 34256.2 hPa WSW 9 km/h 9 km/h 69 % 0 mm
20:45 -10.9 °C -14 °C 34256.2 hPa SW 6 km/h 6 km/h 69 % 0 mm
20:50 -11 °C -13.9 °C 34256.2 hPa SW 4.2 km/h 4.2 km/h 70 % 0 mm
20:55 -11.1 °C -14 °C 34256.2 hPa SW 6 km/h 6 km/h 70 % 0 mm
21:00 -11.1 °C -14 °C 34256.2 hPa WSW 3.1 km/h 3.1 km/h 70 % 0 mm
21:05 -11.1 °C -14.1 °C 34293.4 hPa SW 6 km/h 6 km/h 70 % 0 mm
21:10 -11.1 °C -14.1 °C 34293.4 hPa WSW 4.2 km/h 4.2 km/h 70 % 0 mm
21:15 -11.2 °C -14 °C 34293.4 hPa WSW 3.1 km/h 3.7 km/h 71 % 0 mm
21:20 -11.1 °C -13.9 °C 34293.4 hPa SW 9 km/h 9 km/h 71 % 0 mm
21:25 -11.1 °C -13.8 °C 34293.4 hPa SW 6 km/h 6 km/h 72 % 0 mm
21:30 -11.1 °C -13.8 °C 34293.4 hPa SW 3.1 km/h 3.1 km/h 72 % 0 mm
21:35 -11.1 °C -13.7 °C 34327.3 hPa Calm     73 % 0 mm
21:40 -11.1 °C -13.7 °C 34327.3 hPa Calm     73 % 0 mm
21:45 -11.1 °C -13.7 °C 34327.3 hPa Calm     73 % 0 mm
21:50 -11.2 °C -13.7 °C 34327.3 hPa Calm     74 % 0 mm
21:55 -11.4 °C -13.2 °C 34327.3 hPa Calm     81 % 0 mm
22:00 -11.3 °C -13.8 °C 34327.3 hPa SW 3.1 km/h   74 % 0 mm
22:05 -11.3 °C -13.8 °C 34327.3 hPa Calm     74 % 0 mm
22:10 -11.3 °C -13.8 °C 34327.3 hPa SW 3.1 km/h   74 % 0 mm
22:15 -11.3 °C -13.7 °C 34327.3 hPa Calm     75 % 0 mm
22:20 -11.3 °C -13.7 °C 34327.3 hPa Calm     75 % 0 mm
22:25 -11.3 °C -13.7 °C 34327.3 hPa SW 3.7 km/h   75 % 0 mm
22:31 -11.2 °C -13.6 °C 34327.3 hPa Calm     75 % 0 mm
22:35 -11.6 °C -13.2 °C 34293.4 hPa Calm     82 % 0 mm
22:36 -11.2 °C -13.5 °C 34327.3 hPa East 3.1 km/h 3.1 km/h 76 % 0 mm
22:41 -11.2 °C -13.4 °C 34327.3 hPa Calm     76 % 0 mm
22:45 -11.6 °C -13.2 °C 34327.3 hPa Calm   2.6 km/h 83 % 0 mm
22:46 -11.2 °C -13.4 °C 34327.3 hPa Calm     76 % 0 mm
22:51 -11.2 °C -13.4 °C 34327.3 hPa East 3.7 km/h   76 % 0 mm
22:55 -11.7 °C -13.4 °C 34327.3 hPa Calm   2.6 km/h 82 % 0 mm
22:56 -11.2 °C -13.4 °C 34327.3 hPa East 3.1 km/h 3.7 km/h 76 % 0 mm
23:01 -11.1 °C -13.4 °C 34327.3 hPa East 6 km/h 6 km/h 76 % 0 mm
23:05 -11.7 °C -13.2 °C 34327.3 hPa Calm     83 % 0 mm
23:06 -11.1 °C -13.5 °C 34327.3 hPa WSW 4.2 km/h   75 % 0 mm
23:11 -11.2 °C -13.6 °C 34327.3 hPa Calm     75 % 0 mm
23:15 -11.7 °C -13.3 °C 34327.3 hPa Calm     83 % 0 mm
23:16 -11.2 °C -13.6 °C 34327.3 hPa Calm     75 % 0 mm
23:21 -11.2 °C -13.6 °C 34327.3 hPa SW 4.2 km/h   75 % 0 mm
23:25 -11.7 °C -13.3 °C 34293.4 hPa Calm     83 % 0 mm
23:26 -11.2 °C -13.5 °C 34327.3 hPa ESE 3.1 km/h 3.1 km/h 76 % 0 mm
23:31 -11.2 °C -13.5 °C 34327.3 hPa ESE 3.1 km/h 3.1 km/h 76 % 0 mm
23:35 -11.9 °C -13.5 °C 34293.4 hPa NNW 2.6 km/h 2.6 km/h 82 % 0 mm
23:36 -11.2 °C -13.5 °C 34327.3 hPa Calm     76 % 0 mm
23:41 -11.2 °C -13.5 °C 34327.3 hPa Calm     76 % 0 mm
23:45 -11.9 °C -13.5 °C 34256.2 hPa Calm   2.6 km/h 83 % 0 mm
23:46 -11.2 °C -13.5 °C 34327.3 hPa Calm     76 % 0 mm
23:51 -11.2 °C -13.5 °C 34293.4 hPa ENE 3.1 km/h   76 % 0 mm
23:55 -12 °C -13.7 °C 34256.2 hPa Calm   5.1 km/h 82 % 0 mm
23:56 -11.3 °C -13.6 °C 34293.4 hPa Calm     76 % 0 mm
Meteo Sesrovires
Elogis d' Weather Underground - 2 mb

Guio original per  Jim McMurry - jmcmurry@mwt.net Adaptat per a la plantilla per  Wim van der Kuil - Leuven-Template.eu

Trobareu la nostra informacio del temps tambe a:

Weather Underground

AWEKAS